sensor_id;sensor_type;location;lat;lon;timestamp;temperature;humidity
65985;HTU21D;52748;51.112;5.880;2023-10-09T00:00:15;22.46;81.92
65985;HTU21D;52748;51.112;5.880;2023-10-09T00:03:00;22.46;81.81
65985;HTU21D;52748;51.112;5.880;2023-10-09T00:05:30;22.42;81.98
65985;HTU21D;52748;51.112;5.880;2023-10-09T00:08:15;22.42;81.96
65985;HTU21D;52748;51.112;5.880;2023-10-09T00:10:51;22.44;81.88
65985;HTU21D;52748;51.112;5.880;2023-10-09T00:13:24;22.44;81.68
65985;HTU21D;52748;51.112;5.880;2023-10-09T00:16:07;22.41;81.82
65985;HTU21D;52748;51.112;5.880;2023-10-09T00:18:40;22.40;81.89
65985;HTU21D;52748;51.112;5.880;2023-10-09T00:21:16;22.40;81.88
65985;HTU21D;52748;51.112;5.880;2023-10-09T00:23:42;22.38;82.02
65985;HTU21D;52748;51.112;5.880;2023-10-09T00:26:09;22.38;82.03
65985;HTU21D;52748;51.112;5.880;2023-10-09T00:28:39;22.37;82.13
65985;HTU21D;52748;51.112;5.880;2023-10-09T00:31:20;22.37;82.10
65985;HTU21D;52748;51.112;5.880;2023-10-09T00:33:56;22.38;81.81
65985;HTU21D;52748;51.112;5.880;2023-10-09T00:36:27;22.41;81.62
65985;HTU21D;52748;51.112;5.880;2023-10-09T00:38:54;22.40;81.46
65985;HTU21D;52748;51.112;5.880;2023-10-09T00:41:20;22.38;81.50
65985;HTU21D;52748;51.112;5.880;2023-10-09T00:43:51;22.36;81.77
65985;HTU21D;52748;51.112;5.880;2023-10-09T00:46:20;22.36;81.88
65985;HTU21D;52748;51.112;5.880;2023-10-09T00:49:05;22.35;81.86
65985;HTU21D;52748;51.112;5.880;2023-10-09T00:51:41;22.35;81.90
65985;HTU21D;52748;51.112;5.880;2023-10-09T00:54:09;22.34;81.93
65985;HTU21D;52748;51.112;5.880;2023-10-09T00:56:41;22.35;81.94
65985;HTU21D;52748;51.112;5.880;2023-10-09T00:59:15;22.34;81.91
65985;HTU21D;52748;51.112;5.880;2023-10-09T01:01:42;22.37;81.62
65985;HTU21D;52748;51.112;5.880;2023-10-09T01:04:23;22.36;81.61
65985;HTU21D;52748;51.112;5.880;2023-10-09T01:06:51;22.37;81.66
65985;HTU21D;52748;51.112;5.880;2023-10-09T01:09:30;22.35;81.74
65985;HTU21D;52748;51.112;5.880;2023-10-09T01:12:02;22.37;81.62
65985;HTU21D;52748;51.112;5.880;2023-10-09T01:14:30;22.38;81.48
65985;HTU21D;52748;51.112;5.880;2023-10-09T01:17:02;22.37;81.42
65985;HTU21D;52748;51.112;5.880;2023-10-09T01:19:32;22.38;81.39
65985;HTU21D;52748;51.112;5.880;2023-10-09T01:21:59;22.39;81.12
65985;HTU21D;52748;51.112;5.880;2023-10-09T01:24:40;22.40;80.93
65985;HTU21D;52748;51.112;5.880;2023-10-09T01:27:06;22.38;80.95
65985;HTU21D;52748;51.112;5.880;2023-10-09T01:29:41;22.37;81.16
65985;HTU21D;52748;51.112;5.880;2023-10-09T01:32:08;22.40;80.92
65985;HTU21D;52748;51.112;5.880;2023-10-09T01:34:43;22.40;80.96
65985;HTU21D;52748;51.112;5.880;2023-10-09T01:37:12;22.39;80.82
65985;HTU21D;52748;51.112;5.880;2023-10-09T01:39:52;22.37;81.08
65985;HTU21D;52748;51.112;5.880;2023-10-09T01:42:20;22.34;81.20
65985;HTU21D;52748;51.112;5.880;2023-10-09T01:44:50;22.36;81.23
65985;HTU21D;52748;51.112;5.880;2023-10-09T01:47:18;22.38;80.95
65985;HTU21D;52748;51.112;5.880;2023-10-09T01:49:45;22.41;80.78
65985;HTU21D;52748;51.112;5.880;2023-10-09T01:52:15;22.41;80.70
65985;HTU21D;52748;51.112;5.880;2023-10-09T01:54:45;22.42;80.62
65985;HTU21D;52748;51.112;5.880;2023-10-09T01:57:18;22.41;80.64
65985;HTU21D;52748;51.112;5.880;2023-10-09T01:59:51;22.39;80.87
65985;HTU21D;52748;51.112;5.880;2023-10-09T02:02:21;22.40;80.72
65985;HTU21D;52748;51.112;5.880;2023-10-09T02:05:06;22.40;80.76
65985;HTU21D;52748;51.112;5.880;2023-10-09T02:07:37;22.40;80.63
65985;HTU21D;52748;51.112;5.880;2023-10-09T02:10:13;22.37;80.87
65985;HTU21D;52748;51.112;5.880;2023-10-09T02:13:03;22.36;81.02
65985;HTU21D;52748;51.112;5.880;2023-10-09T02:15:34;22.36;80.81
65985;HTU21D;52748;51.112;5.880;2023-10-09T02:18:26;22.38;80.84
65985;HTU21D;52748;51.112;5.880;2023-10-09T02:21:12;22.39;80.65
65985;HTU21D;52748;51.112;5.880;2023-10-09T02:23:39;22.35;80.78
65985;HTU21D;52748;51.112;5.880;2023-10-09T02:26:07;22.34;80.98
65985;HTU21D;52748;51.112;5.880;2023-10-09T02:28:37;22.33;81.10
65985;HTU21D;52748;51.112;5.880;2023-10-09T02:31:12;22.34;81.05
65985;HTU21D;52748;51.112;5.880;2023-10-09T02:33:40;22.32;81.10
65985;HTU21D;52748;51.112;5.880;2023-10-09T02:36:07;22.31;81.06
65985;HTU21D;52748;51.112;5.880;2023-10-09T02:38:34;22.32;81.02
65985;HTU21D;52748;51.112;5.880;2023-10-09T02:41:02;22.35;80.74
65985;HTU21D;52748;51.112;5.880;2023-10-09T02:43:32;22.34;80.64
65985;HTU21D;52748;51.112;5.880;2023-10-09T02:46:19;22.35;80.56
65985;HTU21D;52748;51.112;5.880;2023-10-09T02:48:50;22.37;80.48
65985;HTU21D;52748;51.112;5.880;2023-10-09T02:51:19;22.36;80.36
65985;HTU21D;52748;51.112;5.880;2023-10-09T02:54:02;22.36;80.43
65985;HTU21D;52748;51.112;5.880;2023-10-09T02:56:48;22.36;80.36
65985;HTU21D;52748;51.112;5.880;2023-10-09T02:59:35;22.33;80.65
65985;HTU21D;52748;51.112;5.880;2023-10-09T03:02:04;22.34;80.63
65985;HTU21D;52748;51.112;5.880;2023-10-09T03:04:30;22.32;80.58
65985;HTU21D;52748;51.112;5.880;2023-10-09T03:06:59;22.29;80.77
65985;HTU21D;52748;51.112;5.880;2023-10-09T03:09:26;22.28;80.85
65985;HTU21D;52748;51.112;5.880;2023-10-09T03:11:59;22.32;80.75
65985;HTU21D;52748;51.112;5.880;2023-10-09T03:14:34;22.33;80.61
65985;HTU21D;52748;51.112;5.880;2023-10-09T03:17:01;22.31;80.77
65985;HTU21D;52748;51.112;5.880;2023-10-09T03:19:30;22.34;80.56
65985;HTU21D;52748;51.112;5.880;2023-10-09T03:21:56;22.36;80.40
65985;HTU21D;52748;51.112;5.880;2023-10-09T03:24:26;22.36;80.28
65985;HTU21D;52748;51.112;5.880;2023-10-09T03:26:57;22.36;80.28
65985;HTU21D;52748;51.112;5.880;2023-10-09T03:29:26;22.34;80.52
65985;HTU21D;52748;51.112;5.880;2023-10-09T03:31:55;22.32;80.59
65985;HTU21D;52748;51.112;5.880;2023-10-09T03:34:22;22.35;80.42
65985;HTU21D;52748;51.112;5.880;2023-10-09T03:36:50;22.36;80.25
65985;HTU21D;52748;51.112;5.880;2023-10-09T03:39:32;22.35;80.23
65985;HTU21D;52748;51.112;5.880;2023-10-09T03:42:04;22.35;80.24
65985;HTU21D;52748;51.112;5.880;2023-10-09T03:44:34;22.35;80.04
65985;HTU21D;52748;51.112;5.880;2023-10-09T03:47:07;22.35;80.07
65985;HTU21D;52748;51.112;5.880;2023-10-09T03:49:36;22.31;80.33
65985;HTU21D;52748;51.112;5.880;2023-10-09T03:52:05;22.29;80.44
65985;HTU21D;52748;51.112;5.880;2023-10-09T03:54:35;22.28;80.56
65985;HTU21D;52748;51.112;5.880;2023-10-09T03:57:01;22.29;80.49
65985;HTU21D;52748;51.112;5.880;2023-10-09T03:59:28;22.31;80.26
65985;HTU21D;52748;51.112;5.880;2023-10-09T04:01:57;22.31;80.03
65985;HTU21D;52748;51.112;5.880;2023-10-09T04:04:24;22.32;79.87
65985;HTU21D;52748;51.112;5.880;2023-10-09T04:06:51;22.31;79.74
65985;HTU21D;52748;51.112;5.880;2023-10-09T04:09:19;22.28;79.85
65985;HTU21D;52748;51.112;5.880;2023-10-09T04:14:23;22.31;79.68
65985;HTU21D;52748;51.112;5.880;2023-10-09T04:16:59;22.28;79.67
65985;HTU21D;52748;51.112;5.880;2023-10-09T04:19:49;22.25;79.92
65985;HTU21D;52748;51.112;5.880;2023-10-09T04:22:35;22.29;79.73
65985;HTU21D;52748;51.112;5.880;2023-10-09T04:25:06;22.31;79.59
65985;HTU21D;52748;51.112;5.880;2023-10-09T04:27:41;22.31;79.53
65985;HTU21D;52748;51.112;5.880;2023-10-09T04:30:07;22.31;79.64
65985;HTU21D;52748;51.112;5.880;2023-10-09T04:32:33;22.31;79.46
65985;HTU21D;52748;51.112;5.880;2023-10-09T04:35:03;22.32;79.39
65985;HTU21D;52748;51.112;5.880;2023-10-09T04:37:45;22.31;79.40
65985;HTU21D;52748;51.112;5.880;2023-10-09T04:40:18;22.28;79.44
65985;HTU21D;52748;51.112;5.880;2023-10-09T04:43:03;22.26;79.69
65985;HTU21D;52748;51.112;5.880;2023-10-09T04:45:36;22.28;79.49
65985;HTU21D;52748;51.112;5.880;2023-10-09T04:48:22;22.27;79.50
65985;HTU21D;52748;51.112;5.880;2023-10-09T04:51:07;22.25;79.65
65985;HTU21D;52748;51.112;5.880;2023-10-09T04:54:00;22.26;79.62
65985;HTU21D;52748;51.112;5.880;2023-10-09T04:56:39;22.26;79.53
65985;HTU21D;52748;51.112;5.880;2023-10-09T04:59:20;22.27;79.25
65985;HTU21D;52748;51.112;5.880;2023-10-09T05:01:53;22.28;79.14
65985;HTU21D;52748;51.112;5.880;2023-10-09T05:04:25;22.28;79.04
65985;HTU21D;52748;51.112;5.880;2023-10-09T05:07:03;22.26;79.19
65985;HTU21D;52748;51.112;5.880;2023-10-09T05:09:49;22.23;79.40
65985;HTU21D;52748;51.112;5.880;2023-10-09T05:12:22;22.22;79.46
65985;HTU21D;52748;51.112;5.880;2023-10-09T05:14:52;22.25;79.30
65985;HTU21D;52748;51.112;5.880;2023-10-09T05:17:47;22.23;79.87
65985;HTU21D;52748;51.112;5.880;2023-10-09T05:20:25;22.22;77.95
65985;HTU21D;52748;51.112;5.880;2023-10-09T05:23:10;22.20;76.77
65985;HTU21D;52748;51.112;5.880;2023-10-09T05:25:52;22.19;76.05
65985;HTU21D;52748;51.112;5.880;2023-10-09T05:28:24;22.19;75.66
65985;HTU21D;52748;51.112;5.880;2023-10-09T05:31:15;22.18;75.80
65985;HTU21D;52748;51.112;5.880;2023-10-09T05:34:12;22.14;76.01
65985;HTU21D;52748;51.112;5.880;2023-10-09T05:36:45;22.12;75.70
65985;HTU21D;52748;51.112;5.880;2023-10-09T05:39:13;22.11;75.21
65985;HTU21D;52748;51.112;5.880;2023-10-09T05:41:45;22.11;74.91
65985;HTU21D;52748;51.112;5.880;2023-10-09T05:44:17;22.09;74.78
65985;HTU21D;52748;51.112;5.880;2023-10-09T05:47:02;22.05;74.96
65985;HTU21D;52748;51.112;5.880;2023-10-09T05:49:47;22.06;75.42
65985;HTU21D;52748;51.112;5.880;2023-10-09T05:52:23;22.06;76.24
65985;HTU21D;52748;51.112;5.880;2023-10-09T05:55:23;21.99;77.55
65985;HTU21D;52748;51.112;5.880;2023-10-09T05:57:56;22.01;78.64
65985;HTU21D;52748;51.112;5.880;2023-10-09T06:00:40;22.04;78.60
65985;HTU21D;52748;51.112;5.880;2023-10-09T06:03:25;22.08;78.46
65985;HTU21D;52748;51.112;5.880;2023-10-09T06:05:53;22.10;78.40
65985;HTU21D;52748;51.112;5.880;2023-10-09T06:08:20;22.06;78.83
65985;HTU21D;52748;51.112;5.880;2023-10-09T06:11:04;22.06;79.14
65985;HTU21D;52748;51.112;5.880;2023-10-09T06:13:49;22.10;78.96
65985;HTU21D;52748;51.112;5.880;2023-10-09T06:16:28;22.08;79.24
65985;HTU21D;52748;51.112;5.880;2023-10-09T06:19:14;22.14;79.66
65985;HTU21D;52748;51.112;5.880;2023-10-09T06:21:46;22.13;79.78
65985;HTU21D;52748;51.112;5.880;2023-10-09T06:24:19;22.12;79.91
65985;HTU21D;52748;51.112;5.880;2023-10-09T06:26:46;22.12;79.77
65985;HTU21D;52748;51.112;5.880;2023-10-09T06:29:25;22.11;79.82
65985;HTU21D;52748;51.112;5.880;2023-10-09T06:32:11;22.17;79.53
65985;HTU21D;52748;51.112;5.880;2023-10-09T06:34:56;22.18;79.33
65985;HTU21D;52748;51.112;5.880;2023-10-09T06:37:23;22.17;79.37
65985;HTU21D;52748;51.112;5.880;2023-10-09T06:39:53;22.14;79.48
65985;HTU21D;52748;51.112;5.880;2023-10-09T06:42:23;22.17;79.33
65985;HTU21D;52748;51.112;5.880;2023-10-09T06:45:05;22.17;79.39
65985;HTU21D;52748;51.112;5.880;2023-10-09T06:47:35;22.13;79.54
65985;HTU21D;52748;51.112;5.880;2023-10-09T06:50:11;22.11;79.69
65985;HTU21D;52748;51.112;5.880;2023-10-09T06:52:49;22.11;79.76
65985;HTU21D;52748;51.112;5.880;2023-10-09T06:55:37;22.11;79.71
65985;HTU21D;52748;51.112;5.880;2023-10-09T06:58:21;22.10;79.63
65985;HTU21D;52748;51.112;5.880;2023-10-09T07:00:55;22.13;79.47
65985;HTU21D;52748;51.112;5.880;2023-10-09T07:03:32;22.17;79.14
65985;HTU21D;52748;51.112;5.880;2023-10-09T07:06:09;22.19;78.85
65985;HTU21D;52748;51.112;5.880;2023-10-09T07:08:56;22.18;78.47
65985;HTU21D;52748;51.112;5.880;2023-10-09T07:11:36;22.16;78.08
65985;HTU21D;52748;51.112;5.880;2023-10-09T07:14:09;22.18;78.15
65985;HTU21D;52748;51.112;5.880;2023-10-09T07:16:55;22.14;78.49
65985;HTU21D;52748;51.112;5.880;2023-10-09T07:19:28;22.13;78.65
65985;HTU21D;52748;51.112;5.880;2023-10-09T07:22:01;22.16;78.75
65985;HTU21D;52748;51.112;5.880;2023-10-09T07:24:30;22.18;78.50
65985;HTU21D;52748;51.112;5.880;2023-10-09T07:27:19;22.22;78.27
65985;HTU21D;52748;51.112;5.880;2023-10-09T07:30:06;22.21;78.15
65985;HTU21D;52748;51.112;5.880;2023-10-09T07:33:11;22.18;78.47
65985;HTU21D;52748;51.112;5.880;2023-10-09T07:35:40;22.20;78.31
65985;HTU21D;52748;51.112;5.880;2023-10-09T07:38:25;22.21;78.26
65985;HTU21D;52748;51.112;5.880;2023-10-09T07:40:55;22.19;76.86
65985;HTU21D;52748;51.112;5.880;2023-10-09T07:43:38;22.18;75.56
65985;HTU21D;52748;51.112;5.880;2023-10-09T07:46:06;22.13;75.23
65985;HTU21D;52748;51.112;5.880;2023-10-09T07:48:51;22.11;74.97
65985;HTU21D;52748;51.112;5.880;2023-10-09T07:51:20;22.05;74.94
65985;HTU21D;52748;51.112;5.880;2023-10-09T07:53:57;22.06;74.99
65985;HTU21D;52748;51.112;5.880;2023-10-09T07:56:36;22.05;75.09
65985;HTU21D;52748;51.112;5.880;2023-10-09T07:59:11;22.02;75.32
65985;HTU21D;52748;51.112;5.880;2023-10-09T08:01:41;22.01;75.42
65985;HTU21D;52748;51.112;5.880;2023-10-09T08:04:28;22.01;75.60
65985;HTU21D;52748;51.112;5.880;2023-10-09T08:07:08;21.99;75.78
65985;HTU21D;52748;51.112;5.880;2023-10-09T08:09:36;21.99;76.05
65985;HTU21D;52748;51.112;5.880;2023-10-09T08:12:27;21.96;75.83
65985;HTU21D;52748;51.112;5.880;2023-10-09T08:15:11;21.97;75.77
65985;HTU21D;52748;51.112;5.880;2023-10-09T08:17:53;21.98;75.48
65985;HTU21D;52748;51.112;5.880;2023-10-09T08:20:25;21.94;75.51
65985;HTU21D;52748;51.112;5.880;2023-10-09T08:22:55;21.91;75.71
65985;HTU21D;52748;51.112;5.880;2023-10-09T08:25:26;21.92;75.83
65985;HTU21D;52748;51.112;5.880;2023-10-09T08:27:53;21.89;76.06
65985;HTU21D;52748;51.112;5.880;2023-10-09T08:30:46;21.87;76.21
65985;HTU21D;52748;51.112;5.880;2023-10-09T08:33:21;21.88;76.28
65985;HTU21D;52748;51.112;5.880;2023-10-09T08:35:54;21.93;76.29
65985;HTU21D;52748;51.112;5.880;2023-10-09T08:38:40;21.94;76.85
65985;HTU21D;52748;51.112;5.880;2023-10-09T08:41:10;21.93;77.64
65985;HTU21D;52748;51.112;5.880;2023-10-09T08:43:50;21.97;77.72
65985;HTU21D;52748;51.112;5.880;2023-10-09T08:46:27;21.98;77.79
65985;HTU21D;52748;51.112;5.880;2023-10-09T08:48:58;22.03;81.28
65985;HTU21D;52748;51.112;5.880;2023-10-09T08:51:26;22.05;80.15
65985;HTU21D;52748;51.112;5.880;2023-10-09T08:53:52;22.06;78.18
65985;HTU21D;52748;51.112;5.880;2023-10-09T08:56:20;22.08;77.12
65985;HTU21D;52748;51.112;5.880;2023-10-09T08:58:55;22.07;76.70
65985;HTU21D;52748;51.112;5.880;2023-10-09T09:01:22;22.05;76.66
65985;HTU21D;52748;51.112;5.880;2023-10-09T09:03:49;22.05;76.71
65985;HTU21D;52748;51.112;5.880;2023-10-09T09:06:18;22.09;76.57
65985;HTU21D;52748;51.112;5.880;2023-10-09T09:08:46;22.09;76.83
65985;HTU21D;52748;51.112;5.880;2023-10-09T09:11:16;22.07;76.98
65985;HTU21D;52748;51.112;5.880;2023-10-09T09:13:59;22.10;76.97
65985;HTU21D;52748;51.112;5.880;2023-10-09T09:16:34;22.08;77.38
65985;HTU21D;52748;51.112;5.880;2023-10-09T09:19:06;22.07;77.73
65985;HTU21D;52748;51.112;5.880;2023-10-09T09:21:40;22.10;77.91
65985;HTU21D;52748;51.112;5.880;2023-10-09T09:24:11;22.09;77.71
65985;HTU21D;52748;51.112;5.880;2023-10-09T09:26:41;22.11;77.52
65985;HTU21D;52748;51.112;5.880;2023-10-09T09:29:12;22.11;77.05
65985;HTU21D;52748;51.112;5.880;2023-10-09T09:31:54;22.12;76.88
65985;HTU21D;52748;51.112;5.880;2023-10-09T09:34:20;22.13;76.96
65985;HTU21D;52748;51.112;5.880;2023-10-09T09:36:57;22.12;77.48
65985;HTU21D;52748;51.112;5.880;2023-10-09T09:39:26;22.12;77.61
65985;HTU21D;52748;51.112;5.880;2023-10-09T09:42:01;22.14;77.27
65985;HTU21D;52748;51.112;5.880;2023-10-09T09:44:34;22.20;76.85
65985;HTU21D;52748;51.112;5.880;2023-10-09T09:47:12;22.19;77.11
65985;HTU21D;52748;51.112;5.880;2023-10-09T09:49:42;22.20;77.36
65985;HTU21D;52748;51.112;5.880;2023-10-09T09:52:09;22.23;76.79
65985;HTU21D;52748;51.112;5.880;2023-10-09T09:54:38;22.25;76.50
65985;HTU21D;52748;51.112;5.880;2023-10-09T09:57:07;22.26;76.37
65985;HTU21D;52748;51.112;5.880;2023-10-09T09:59:39;22.24;76.82
65985;HTU21D;52748;51.112;5.880;2023-10-09T10:02:23;22.22;76.79
65985;HTU21D;52748;51.112;5.880;2023-10-09T10:04:55;22.16;76.37
65985;HTU21D;52748;51.112;5.880;2023-10-09T10:07:23;22.10;76.46
65985;HTU21D;52748;51.112;5.880;2023-10-09T10:09:50;22.08;76.08
65985;HTU21D;52748;51.112;5.880;2023-10-09T10:12:49;22.01;76.28
65985;HTU21D;52748;51.112;5.880;2023-10-09T10:18:33;21.92;76.50
65985;HTU21D;52748;51.112;5.880;2023-10-09T10:21:14;21.95;76.26
65985;HTU21D;52748;51.112;5.880;2023-10-09T10:23:46;21.96;76.19
65985;HTU21D;52748;51.112;5.880;2023-10-09T10:26:17;21.97;75.99
65985;HTU21D;52748;51.112;5.880;2023-10-09T10:28:44;21.95;76.36
65985;HTU21D;52748;51.112;5.880;2023-10-09T10:31:11;22.03;76.69
65985;HTU21D;52748;51.112;5.880;2023-10-09T10:36:22;22.13;76.61
65985;HTU21D;52748;51.112;5.880;2023-10-09T10:39:08;22.17;76.56
65985;HTU21D;52748;51.112;5.880;2023-10-09T10:41:56;22.21;76.41
65985;HTU21D;52748;51.112;5.880;2023-10-09T10:47:08;22.20;76.76
65985;HTU21D;52748;51.112;5.880;2023-10-09T10:49:59;22.24;76.57
65985;HTU21D;52748;51.112;5.880;2023-10-09T10:52:33;22.25;76.65
65985;HTU21D;52748;51.112;5.880;2023-10-09T10:55:16;22.28;76.47
65985;HTU21D;52748;51.112;5.880;2023-10-09T10:58:01;22.31;76.36
65985;HTU21D;52748;51.112;5.880;2023-10-09T11:00:28;22.34;76.32
65985;HTU21D;52748;51.112;5.880;2023-10-09T11:03:20;22.33;76.40
65985;HTU21D;52748;51.112;5.880;2023-10-09T11:06:01;22.28;76.57
65985;HTU21D;52748;51.112;5.880;2023-10-09T11:08:46;22.31;76.57
65985;HTU21D;52748;51.112;5.880;2023-10-09T11:11:23;22.33;76.53
65985;HTU21D;52748;51.112;5.880;2023-10-09T11:13:49;22.32;76.63
65985;HTU21D;52748;51.112;5.880;2023-10-09T11:16:25;22.33;76.85
65985;HTU21D;52748;51.112;5.880;2023-10-09T11:19:00;22.34;76.95
65985;HTU21D;52748;51.112;5.880;2023-10-09T11:21:38;22.32;77.08
65985;HTU21D;52748;51.112;5.880;2023-10-09T11:24:08;22.32;77.15
65985;HTU21D;52748;51.112;5.880;2023-10-09T11:26:53;22.28;77.45
65985;HTU21D;52748;51.112;5.880;2023-10-09T11:29:23;22.32;77.37
65985;HTU21D;52748;51.112;5.880;2023-10-09T11:31:59;22.28;77.60
65985;HTU21D;52748;51.112;5.880;2023-10-09T11:34:26;22.28;77.72
65985;HTU21D;52748;51.112;5.880;2023-10-09T11:36:58;22.32;77.58
65985;HTU21D;52748;51.112;5.880;2023-10-09T11:39:26;22.34;77.38
65985;HTU21D;52748;51.112;5.880;2023-10-09T11:42:07;22.35;77.25
65985;HTU21D;52748;51.112;5.880;2023-10-09T11:44:39;22.34;77.36
65985;HTU21D;52748;51.112;5.880;2023-10-09T11:47:07;22.34;77.53
65985;HTU21D;52748;51.112;5.880;2023-10-09T11:49:53;22.35;77.39
65985;HTU21D;52748;51.112;5.880;2023-10-09T11:52:32;22.34;77.44
65985;HTU21D;52748;51.112;5.880;2023-10-09T11:55:04;22.34;77.62
65985;HTU21D;52748;51.112;5.880;2023-10-09T11:57:41;22.32;77.88
65985;HTU21D;52748;51.112;5.880;2023-10-09T12:00:07;22.28;78.08
65985;HTU21D;52748;51.112;5.880;2023-10-09T12:02:36;22.29;78.18
65985;HTU21D;52748;51.112;5.880;2023-10-09T12:05:12;22.28;78.22
65985;HTU21D;52748;51.112;5.880;2023-10-09T12:07:46;22.29;78.22
65985;HTU21D;52748;51.112;5.880;2023-10-09T12:10:12;22.34;78.05
65985;HTU21D;52748;51.112;5.880;2023-10-09T12:12:41;22.33;78.05
65985;HTU21D;52748;51.112;5.880;2023-10-09T12:15:15;22.33;78.15
65985;HTU21D;52748;51.112;5.880;2023-10-09T12:17:44;22.33;78.19
65985;HTU21D;52748;51.112;5.880;2023-10-09T12:20:19;22.35;78.04
65985;HTU21D;52748;51.112;5.880;2023-10-09T12:23:02;22.38;77.78
65985;HTU21D;52748;51.112;5.880;2023-10-09T12:25:31;22.36;77.82
65985;HTU21D;52748;51.112;5.880;2023-10-09T12:27:58;22.38;77.70
65985;HTU21D;52748;51.112;5.880;2023-10-09T12:30:29;22.36;77.76
65985;HTU21D;52748;51.112;5.880;2023-10-09T12:32:57;22.35;77.93
65985;HTU21D;52748;51.112;5.880;2023-10-09T12:35:26;22.35;77.97
65985;HTU21D;52748;51.112;5.880;2023-10-09T12:37:54;22.35;78.08
65985;HTU21D;52748;51.112;5.880;2023-10-09T12:40:24;22.34;78.20
65985;HTU21D;52748;51.112;5.880;2023-10-09T12:42:53;22.35;78.03
65985;HTU21D;52748;51.112;5.880;2023-10-09T12:45:19;22.35;78.14
65985;HTU21D;52748;51.112;5.880;2023-10-09T12:47:54;22.36;78.16
65985;HTU21D;52748;51.112;5.880;2023-10-09T12:50:25;22.35;77.94
65985;HTU21D;52748;51.112;5.880;2023-10-09T12:52:57;22.35;78.01
65985;HTU21D;52748;51.112;5.880;2023-10-09T12:55:36;22.39;77.76
65985;HTU21D;52748;51.112;5.880;2023-10-09T12:58:07;22.40;77.62
65985;HTU21D;52748;51.112;5.880;2023-10-09T13:00:34;22.41;77.54
65985;HTU21D;52748;51.112;5.880;2023-10-09T13:03:06;22.42;77.46
65985;HTU21D;52748;51.112;5.880;2023-10-09T13:05:53;22.39;77.76
65985;HTU21D;52748;51.112;5.880;2023-10-09T13:08:24;22.38;77.79
65985;HTU21D;52748;51.112;5.880;2023-10-09T13:10:51;22.37;78.00
65985;HTU21D;52748;51.112;5.880;2023-10-09T13:13:28;22.38;77.98
65985;HTU21D;52748;51.112;5.880;2023-10-09T13:16:21;22.36;78.16
65985;HTU21D;52748;51.112;5.880;2023-10-09T13:18:55;22.35;78.30
65985;HTU21D;52748;51.112;5.880;2023-10-09T13:21:27;22.35;78.37
65985;HTU21D;52748;51.112;5.880;2023-10-09T13:23:57;22.37;78.24
65985;HTU21D;52748;51.112;5.880;2023-10-09T13:26:24;22.37;78.13
65985;HTU21D;52748;51.112;5.880;2023-10-09T13:28:54;22.41;77.90
65985;HTU21D;52748;51.112;5.880;2023-10-09T13:31:22;22.36;78.14
65985;HTU21D;52748;51.112;5.880;2023-10-09T13:34:08;22.37;78.11
65985;HTU21D;52748;51.112;5.880;2023-10-09T13:36:41;22.36;78.21
65985;HTU21D;52748;51.112;5.880;2023-10-09T13:39:15;22.34;78.32
65985;HTU21D;52748;51.112;5.880;2023-10-09T13:41:54;22.37;78.05
65985;HTU21D;52748;51.112;5.880;2023-10-09T13:44:30;22.39;77.98
65985;HTU21D;52748;51.112;5.880;2023-10-09T13:46:58;22.37;78.00
65985;HTU21D;52748;51.112;5.880;2023-10-09T13:49:24;22.37;78.17
65985;HTU21D;52748;51.112;5.880;2023-10-09T13:51:56;22.39;77.93
65985;HTU21D;52748;51.112;5.880;2023-10-09T13:54:22;22.40;77.88
65985;HTU21D;52748;51.112;5.880;2023-10-09T13:56:58;22.38;77.98
65985;HTU21D;52748;51.112;5.880;2023-10-09T13:59:24;22.36;78.11
65985;HTU21D;52748;51.112;5.880;2023-10-09T14:01:54;22.36;78.27
65985;HTU21D;52748;51.112;5.880;2023-10-09T14:04:23;22.36;78.25
65985;HTU21D;52748;51.112;5.880;2023-10-09T14:06:50;22.38;78.08
65985;HTU21D;52748;51.112;5.880;2023-10-09T14:09:28;22.38;78.01
65985;HTU21D;52748;51.112;5.880;2023-10-09T14:12:01;22.36;78.23
65985;HTU21D;52748;51.112;5.880;2023-10-09T14:14:42;22.35;78.37
65985;HTU21D;52748;51.112;5.880;2023-10-09T14:17:16;22.36;78.34
65985;HTU21D;52748;51.112;5.880;2023-10-09T14:19:51;22.36;78.26
65985;HTU21D;52748;51.112;5.880;2023-10-09T14:22:19;22.39;78.04
65985;HTU21D;52748;51.112;5.880;2023-10-09T14:24:46;22.38;78.03
65985;HTU21D;52748;51.112;5.880;2023-10-09T14:27:13;22.37;78.24
65985;HTU21D;52748;51.112;5.880;2023-10-09T14:29:47;22.36;78.34
65985;HTU21D;52748;51.112;5.880;2023-10-09T14:32:14;22.37;78.30
65985;HTU21D;52748;51.112;5.880;2023-10-09T14:34:41;22.40;78.05
65985;HTU21D;52748;51.112;5.880;2023-10-09T14:37:20;22.38;78.18
65985;HTU21D;52748;51.112;5.880;2023-10-09T14:39:48;22.40;78.00
65985;HTU21D;52748;51.112;5.880;2023-10-09T14:42:16;22.38;78.04
65985;HTU21D;52748;51.112;5.880;2023-10-09T14:44:42;22.36;78.24
65985;HTU21D;52748;51.112;5.880;2023-10-09T14:47:11;22.38;78.26
65985;HTU21D;52748;51.112;5.880;2023-10-09T14:49:37;22.41;78.01
65985;HTU21D;52748;51.112;5.880;2023-10-09T14:52:05;22.39;78.17
65985;HTU21D;52748;51.112;5.880;2023-10-09T14:54:35;22.40;78.06
65985;HTU21D;52748;51.112;5.880;2023-10-09T14:57:00;22.41;78.11
65985;HTU21D;52748;51.112;5.880;2023-10-09T14:59:26;22.41;77.97
65985;HTU21D;52748;51.112;5.880;2023-10-09T15:01:52;22.42;78.19
65985;HTU21D;52748;51.112;5.880;2023-10-09T15:04:21;22.39;78.72
65985;HTU21D;52748;51.112;5.880;2023-10-09T15:06:52;22.36;78.90
65985;HTU21D;52748;51.112;5.880;2023-10-09T15:09:17;22.36;79.18
65985;HTU21D;52748;51.112;5.880;2023-10-09T15:11:54;22.38;79.53
65985;HTU21D;52748;51.112;5.880;2023-10-09T15:14:21;22.42;79.43
65985;HTU21D;52748;51.112;5.880;2023-10-09T15:16:47;22.43;79.80
65985;HTU21D;52748;51.112;5.880;2023-10-09T15:19:14;22.42;79.65
65985;HTU21D;52748;51.112;5.880;2023-10-09T15:21:42;22.46;79.40
65985;HTU21D;52748;51.112;5.880;2023-10-09T15:24:12;22.46;79.40
65985;HTU21D;52748;51.112;5.880;2023-10-09T15:26:42;22.46;80.10
65985;HTU21D;52748;51.112;5.880;2023-10-09T15:29:08;22.47;79.95
65985;HTU21D;52748;51.112;5.880;2023-10-09T15:31:36;22.43;80.15
65985;HTU21D;52748;51.112;5.880;2023-10-09T15:34:02;22.46;80.35
65985;HTU21D;52748;51.112;5.880;2023-10-09T15:36:35;22.43;80.72
65985;HTU21D;52748;51.112;5.880;2023-10-09T15:39:01;22.43;81.04
65985;HTU21D;52748;51.112;5.880;2023-10-09T15:41:29;22.44;81.36
65985;HTU21D;52748;51.112;5.880;2023-10-09T15:43:57;22.42;81.68
65985;HTU21D;52748;51.112;5.880;2023-10-09T15:46:24;22.43;81.95
65985;HTU21D;52748;51.112;5.880;2023-10-09T15:48:52;22.41;82.20
65985;HTU21D;52748;51.112;5.880;2023-10-09T15:51:19;22.44;83.19
65985;HTU21D;52748;51.112;5.880;2023-10-09T15:53:46;22.47;84.64
65985;HTU21D;52748;51.112;5.880;2023-10-09T15:56:13;22.46;84.67
65985;HTU21D;52748;51.112;5.880;2023-10-09T15:58:40;22.47;85.97
65985;HTU21D;52748;51.112;5.880;2023-10-09T16:01:10;22.50;86.38
65985;HTU21D;52748;51.112;5.880;2023-10-09T16:03:42;22.44;86.99
65985;HTU21D;52748;51.112;5.880;2023-10-09T16:06:11;22.47;87.57